sensor_id;sensor_type;location;lat;lon;timestamp;pressure;altitude;pressure_sealevel;temperature;humidity
55755;BME280;41674;52.290;-1.474;2023-06-24T00:01:17;101702.64;;;20.59;71.21
55755;BME280;41674;52.290;-1.474;2023-06-24T00:03:46;101703.35;;;20.02;71.21
55755;BME280;41674;52.290;-1.474;2023-06-24T00:06:16;101696.78;;;21.09;70.17
55755;BME280;41674;52.290;-1.474;2023-06-24T00:08:46;101698.52;;;20.74;69.32
55755;BME280;41674;52.290;-1.474;2023-06-24T00:11:15;101697.44;;;20.25;70.26
55755;BME280;41674;52.290;-1.474;2023-06-24T00:13:45;101695.65;;;20.39;70.53
55755;BME280;41674;52.290;-1.474;2023-06-24T00:16:14;101698.46;;;20.14;71.38
55755;BME280;41674;52.290;-1.474;2023-06-24T00:18:43;101692.25;;;20.57;70.12
55755;BME280;41674;52.290;-1.474;2023-06-24T00:21:13;101688.42;;;19.98;70.67
55755;BME280;41674;52.290;-1.474;2023-06-24T00:23:42;101689.97;;;19.80;72.94
55755;BME280;41674;52.290;-1.474;2023-06-24T00:26:11;101688.79;;;19.86;72.76
55755;BME280;41674;52.290;-1.474;2023-06-24T00:28:41;101686.57;;;19.94;72.54
55755;BME280;41674;52.290;-1.474;2023-06-24T00:31:10;101687.96;;;20.38;70.75
55755;BME280;41674;52.290;-1.474;2023-06-24T00:33:40;101692.06;;;18.92;75.33
55755;BME280;41674;52.290;-1.474;2023-06-24T00:36:09;101690.05;;;19.54;74.72
55755;BME280;41674;52.290;-1.474;2023-06-24T00:38:39;101688.47;;;19.95;73.05
55755;BME280;41674;52.290;-1.474;2023-06-24T00:41:08;101692.91;;;19.88;73.33
55755;BME280;41674;52.290;-1.474;2023-06-24T00:43:38;101693.17;;;19.35;75.23
55755;BME280;41674;52.290;-1.474;2023-06-24T00:46:08;101699.28;;;19.36;75.82
55755;BME280;41674;52.290;-1.474;2023-06-24T00:48:37;101698.44;;;19.52;74.92
55755;BME280;41674;52.290;-1.474;2023-06-24T00:51:06;101700.30;;;19.51;74.85
55755;BME280;41674;52.290;-1.474;2023-06-24T00:53:36;101706.53;;;18.32;79.51
55755;BME280;41674;52.290;-1.474;2023-06-24T00:56:05;101704.57;;;19.23;77.28
55755;BME280;41674;52.290;-1.474;2023-06-24T00:58:35;101702.28;;;19.48;76.85
55755;BME280;41674;52.290;-1.474;2023-06-24T01:01:04;101702.70;;;19.61;76.38
55755;BME280;41674;52.290;-1.474;2023-06-24T01:03:35;101703.87;;;19.13;77.90
55755;BME280;41674;52.290;-1.474;2023-06-24T01:06:03;101703.49;;;19.42;76.41
55755;BME280;41674;52.290;-1.474;2023-06-24T01:08:33;101699.11;;;19.58;76.54
55755;BME280;41674;52.290;-1.474;2023-06-24T01:11:03;101702.09;;;19.42;76.43
55755;BME280;41674;52.290;-1.474;2023-06-24T01:13:32;101700.34;;;19.62;75.95
55755;BME280;41674;52.290;-1.474;2023-06-24T01:16:09;101699.72;;;19.44;76.25
55755;BME280;41674;52.290;-1.474;2023-06-24T01:18:37;101698.34;;;19.88;75.23
55755;BME280;41674;52.290;-1.474;2023-06-24T01:21:05;101698.18;;;19.74;74.89
55755;BME280;41674;52.290;-1.474;2023-06-24T01:23:46;101698.88;;;19.49;75.74
55755;BME280;41674;52.290;-1.474;2023-06-24T01:26:20;101704.58;;;19.28;77.59
55755;BME280;41674;52.290;-1.474;2023-06-24T01:33:36;101694.98;;;19.32;76.78
55755;BME280;41674;52.290;-1.474;2023-06-24T01:35:58;101690.97;;;19.47;77.29
55755;BME280;41674;52.290;-1.474;2023-06-24T01:38:36;101692.77;;;19.43;78.31
55755;BME280;41674;52.290;-1.474;2023-06-24T01:40:57;101691.64;;;19.49;77.75
55755;BME280;41674;52.290;-1.474;2023-06-24T01:43:26;101694.44;;;18.86;78.66
55755;BME280;41674;52.290;-1.474;2023-06-24T01:45:56;101693.28;;;19.04;79.41
55755;BME280;41674;52.290;-1.474;2023-06-24T01:48:27;101692.63;;;19.03;78.82
55755;BME280;41674;52.290;-1.474;2023-06-24T01:50:59;101692.55;;;19.30;78.18
55755;BME280;41674;52.290;-1.474;2023-06-24T01:53:25;101694.47;;;18.63;80.93
55755;BME280;41674;52.290;-1.474;2023-06-24T01:55:55;101698.80;;;18.64;82.53
55755;BME280;41674;52.290;-1.474;2023-06-24T01:58:23;101700.71;;;18.66;81.86
55755;BME280;41674;52.290;-1.474;2023-06-24T02:00:53;101707.14;;;18.43;83.30
55755;BME280;41674;52.290;-1.474;2023-06-24T02:03:22;101705.70;;;18.61;84.05
55755;BME280;41674;52.290;-1.474;2023-06-24T02:05:52;101707.28;;;18.31;85.07
55755;BME280;41674;52.290;-1.474;2023-06-24T02:08:23;101703.41;;;18.23;85.85
55755;BME280;41674;52.290;-1.474;2023-06-24T02:10:51;101701.13;;;18.33;85.41
55755;BME280;41674;52.290;-1.474;2023-06-24T02:13:20;101699.37;;;18.36;84.78
55755;BME280;41674;52.290;-1.474;2023-06-24T02:15:50;101693.06;;;18.69;83.72
55755;BME280;41674;52.290;-1.474;2023-06-24T02:18:20;101688.97;;;17.96;87.25
55755;BME280;41674;52.290;-1.474;2023-06-24T02:20:49;101691.41;;;17.60;88.41
55755;BME280;41674;52.290;-1.474;2023-06-24T02:23:19;101691.83;;;18.85;84.96
55755;BME280;41674;52.290;-1.474;2023-06-24T02:25:48;101691.91;;;19.32;83.11
55755;BME280;41674;52.290;-1.474;2023-06-24T02:28:18;101696.41;;;18.50;85.04
55755;BME280;41674;52.290;-1.474;2023-06-24T02:30:47;101692.59;;;19.54;81.58
55755;BME280;41674;52.290;-1.474;2023-06-24T02:33:16;101695.46;;;19.11;82.74
55755;BME280;41674;52.290;-1.474;2023-06-24T02:35:46;101692.55;;;19.63;81.81
55755;BME280;41674;52.290;-1.474;2023-06-24T02:38:15;101688.06;;;19.44;80.90
55755;BME280;41674;52.290;-1.474;2023-06-24T02:40:46;101686.65;;;19.60;80.13
55755;BME280;41674;52.290;-1.474;2023-06-24T02:43:14;101678.66;;;19.24;81.57
55755;BME280;41674;52.290;-1.474;2023-06-24T02:45:44;101672.95;;;19.69;79.53
55755;BME280;41674;52.290;-1.474;2023-06-24T02:48:13;101671.31;;;19.81;79.01
55755;BME280;41674;52.290;-1.474;2023-06-24T02:50:43;101677.87;;;20.03;78.47
55755;BME280;41674;52.290;-1.474;2023-06-24T02:53:12;101678.76;;;19.73;79.13
55755;BME280;41674;52.290;-1.474;2023-06-24T02:55:43;101675.90;;;19.62;80.06
55755;BME280;41674;52.290;-1.474;2023-06-24T02:58:11;101679.19;;;19.42;81.32
55755;BME280;41674;52.290;-1.474;2023-06-24T03:00:41;101676.52;;;19.23;81.16
55755;BME280;41674;52.290;-1.474;2023-06-24T03:03:10;101678.94;;;19.45;81.35
55755;BME280;41674;52.290;-1.474;2023-06-24T03:05:39;101679.12;;;19.75;81.08
55755;BME280;41674;52.290;-1.474;2023-06-24T03:08:09;101679.76;;;19.30;81.59
55755;BME280;41674;52.290;-1.474;2023-06-24T03:10:38;101676.58;;;19.41;81.64
55755;BME280;41674;52.290;-1.474;2023-06-24T03:13:08;101676.04;;;19.53;81.68
55755;BME280;41674;52.290;-1.474;2023-06-24T03:15:37;101674.19;;;19.14;83.14
55755;BME280;41674;52.290;-1.474;2023-06-24T03:18:07;101672.94;;;19.65;81.73
55755;BME280;41674;52.290;-1.474;2023-06-24T03:20:36;101672.21;;;18.74;83.92
55755;BME280;41674;52.290;-1.474;2023-06-24T03:23:06;101674.12;;;18.94;83.64
55755;BME280;41674;52.290;-1.474;2023-06-24T03:25:36;101671.34;;;18.22;84.92
55755;BME280;41674;52.290;-1.474;2023-06-24T03:28:05;101673.94;;;18.70;85.13
55755;BME280;41674;52.290;-1.474;2023-06-24T03:30:34;101674.08;;;19.00;84.04
55755;BME280;41674;52.290;-1.474;2023-06-24T03:33:04;101672.29;;;19.24;82.57
55755;BME280;41674;52.290;-1.474;2023-06-24T03:35:33;101677.31;;;18.71;84.40
55755;BME280;41674;52.290;-1.474;2023-06-24T03:38:03;101677.82;;;18.65;85.51
55755;BME280;41674;52.290;-1.474;2023-06-24T03:40:32;101671.03;;;19.51;82.95
55755;BME280;41674;52.290;-1.474;2023-06-24T03:43:02;101669.11;;;19.28;82.70
55755;BME280;41674;52.290;-1.474;2023-06-24T03:45:31;101670.50;;;19.66;81.00
55755;BME280;41674;52.290;-1.474;2023-06-24T03:48:01;101673.44;;;19.59;80.77
55755;BME280;41674;52.290;-1.474;2023-06-24T03:50:31;101671.13;;;20.04;79.63
55755;BME280;41674;52.290;-1.474;2023-06-24T03:53:01;101669.27;;;20.17;79.24
55755;BME280;41674;52.290;-1.474;2023-06-24T03:55:30;101670.51;;;20.35;78.50
55755;BME280;41674;52.290;-1.474;2023-06-24T03:58:00;101676.10;;;20.51;78.07
55755;BME280;41674;52.290;-1.474;2023-06-24T04:00:29;101685.52;;;19.61;80.40
55755;BME280;41674;52.290;-1.474;2023-06-24T04:02:59;101687.56;;;20.08;79.08
55755;BME280;41674;52.290;-1.474;2023-06-24T04:05:28;101691.33;;;20.24;78.82
55755;BME280;41674;52.290;-1.474;2023-06-24T04:07:57;101691.81;;;20.39;78.36
55755;BME280;41674;52.290;-1.474;2023-06-24T04:10:27;101687.75;;;20.21;78.50
55755;BME280;41674;52.290;-1.474;2023-06-24T04:12:57;101683.02;;;20.54;78.03
55755;BME280;41674;52.290;-1.474;2023-06-24T04:15:26;101676.24;;;19.89;78.88
55755;BME280;41674;52.290;-1.474;2023-06-24T04:17:56;101673.54;;;20.73;77.59
55755;BME280;41674;52.290;-1.474;2023-06-24T04:20:26;101676.76;;;19.73;81.04
55755;BME280;41674;52.290;-1.474;2023-06-24T04:22:55;101683.73;;;19.55;80.97
55755;BME280;41674;52.290;-1.474;2023-06-24T04:25:25;101678.32;;;20.04;78.71
55755;BME280;41674;52.290;-1.474;2023-06-24T04:27:54;101682.98;;;20.03;78.70
55755;BME280;41674;52.290;-1.474;2023-06-24T04:30:24;101684.03;;;20.60;77.25
55755;BME280;41674;52.290;-1.474;2023-06-24T04:32:53;101688.53;;;20.17;77.91
55755;BME280;41674;52.290;-1.474;2023-06-24T04:35:23;101687.90;;;20.33;77.38
55755;BME280;41674;52.290;-1.474;2023-06-24T04:37:52;101683.80;;;20.59;77.52
55755;BME280;41674;52.290;-1.474;2023-06-24T04:40:22;101686.85;;;19.93;78.25
55755;BME280;41674;52.290;-1.474;2023-06-24T04:42:51;101685.38;;;20.39;79.12
55755;BME280;41674;52.290;-1.474;2023-06-24T04:45:21;101682.55;;;19.88;78.90
55755;BME280;41674;52.290;-1.474;2023-06-24T04:47:53;101682.23;;;20.11;78.90
55755;BME280;41674;52.290;-1.474;2023-06-24T04:50:20;101677.97;;;19.75;80.07
55755;BME280;41674;52.290;-1.474;2023-06-24T04:52:52;101670.71;;;20.30;78.79
55755;BME280;41674;52.290;-1.474;2023-06-24T04:55:20;101672.56;;;19.21;83.19
55755;BME280;41674;52.290;-1.474;2023-06-24T04:57:49;101672.35;;;20.15;81.08
55755;BME280;41674;52.290;-1.474;2023-06-24T05:00:19;101674.95;;;19.85;82.58
55755;BME280;41674;52.290;-1.474;2023-06-24T05:02:48;101674.07;;;20.53;80.74
55755;BME280;41674;52.290;-1.474;2023-06-24T05:05:19;101676.05;;;20.17;81.89
55755;BME280;41674;52.290;-1.474;2023-06-24T05:07:47;101674.76;;;19.84;83.28
55755;BME280;41674;52.290;-1.474;2023-06-24T05:10:17;101670.72;;;19.82;82.99
55755;BME280;41674;52.290;-1.474;2023-06-24T05:12:46;101669.67;;;19.60;83.33
55755;BME280;41674;52.290;-1.474;2023-06-24T05:15:15;101673.88;;;19.78;83.22
55755;BME280;41674;52.290;-1.474;2023-06-24T05:17:45;101675.34;;;20.08;83.10
55755;BME280;41674;52.290;-1.474;2023-06-24T05:20:15;101677.36;;;20.30;82.46
55755;BME280;41674;52.290;-1.474;2023-06-24T05:22:49;101680.38;;;20.15;83.24
55755;BME280;41674;52.290;-1.474;2023-06-24T05:25:14;101690.80;;;19.28;84.96
55755;BME280;41674;52.290;-1.474;2023-06-24T05:27:43;101690.75;;;19.75;84.49
55755;BME280;41674;52.290;-1.474;2023-06-24T05:30:13;101683.01;;;19.85;84.65
55755;BME280;41674;52.290;-1.474;2023-06-24T05:32:42;101686.08;;;19.12;86.74
55755;BME280;41674;52.290;-1.474;2023-06-24T05:35:12;101684.92;;;19.51;85.56
55755;BME280;41674;52.290;-1.474;2023-06-24T05:37:41;101685.83;;;19.16;88.09
55755;BME280;41674;52.290;-1.474;2023-06-24T05:40:11;101678.64;;;18.74;88.87
55755;BME280;41674;52.290;-1.474;2023-06-24T05:42:40;101674.18;;;19.11;87.67
55755;BME280;41674;52.290;-1.474;2023-06-24T05:45:10;101682.64;;;18.65;89.35
55755;BME280;41674;52.290;-1.474;2023-06-24T05:47:39;101679.34;;;19.26;87.41
55755;BME280;41674;52.290;-1.474;2023-06-24T05:50:09;101681.28;;;19.89;86.43
55755;BME280;41674;52.290;-1.474;2023-06-24T05:52:38;101679.50;;;19.10;87.27
55755;BME280;41674;52.290;-1.474;2023-06-24T05:55:08;101677.37;;;18.96;88.81
55755;BME280;41674;52.290;-1.474;2023-06-24T05:57:37;101684.66;;;18.59;91.29
55755;BME280;41674;52.290;-1.474;2023-06-24T06:00:07;101691.59;;;18.43;92.21
55755;BME280;41674;52.290;-1.474;2023-06-24T06:02:36;101691.75;;;18.28;95.99
55755;BME280;41674;52.290;-1.474;2023-06-24T06:05:05;101696.18;;;19.11;91.35
55755;BME280;41674;52.290;-1.474;2023-06-24T06:07:35;101696.32;;;19.56;90.42
55755;BME280;41674;52.290;-1.474;2023-06-24T06:10:05;101700.31;;;19.38;90.80
55755;BME280;41674;52.290;-1.474;2023-06-24T06:12:33;101698.99;;;18.85;90.25
55755;BME280;41674;52.290;-1.474;2023-06-24T06:15:03;101702.13;;;19.27;91.22
55755;BME280;41674;52.290;-1.474;2023-06-24T06:17:33;101702.58;;;19.55;89.63
55755;BME280;41674;52.290;-1.474;2023-06-24T06:20:02;101706.95;;;19.48;91.44
55755;BME280;41674;52.290;-1.474;2023-06-24T06:22:32;101707.45;;;18.97;93.29
55755;BME280;41674;52.290;-1.474;2023-06-24T06:25:01;101706.84;;;19.12;94.48
55755;BME280;41674;52.290;-1.474;2023-06-24T06:27:30;101709.08;;;18.95;94.41
55755;BME280;41674;52.290;-1.474;2023-06-24T06:30:00;101709.75;;;19.09;93.99
55755;BME280;41674;52.290;-1.474;2023-06-24T06:32:29;101709.00;;;19.90;90.93
55755;BME280;41674;52.290;-1.474;2023-06-24T06:34:59;101709.03;;;19.35;90.25
55755;BME280;41674;52.290;-1.474;2023-06-24T06:37:28;101711.57;;;19.00;92.36
55755;BME280;41674;52.290;-1.474;2023-06-24T06:39:58;101711.56;;;19.42;93.23
55755;BME280;41674;52.290;-1.474;2023-06-24T06:42:29;101708.52;;;19.10;93.13
55755;BME280;41674;52.290;-1.474;2023-06-24T06:44:57;101712.11;;;19.40;92.76
55755;BME280;41674;52.290;-1.474;2023-06-24T06:47:26;101714.14;;;18.56;96.56
55755;BME280;41674;52.290;-1.474;2023-06-24T06:49:56;101714.57;;;18.53;95.76
55755;BME280;41674;52.290;-1.474;2023-06-24T06:52:25;101720.60;;;19.42;93.37
55755;BME280;41674;52.290;-1.474;2023-06-24T06:54:54;101726.38;;;18.90;93.13
55755;BME280;41674;52.290;-1.474;2023-06-24T06:57:24;101724.69;;;19.90;90.26
55755;BME280;41674;52.290;-1.474;2023-06-24T06:59:54;101729.44;;;19.81;90.94
55755;BME280;41674;52.290;-1.474;2023-06-24T07:02:23;101727.16;;;19.82;89.76
55755;BME280;41674;52.290;-1.474;2023-06-24T07:04:53;101728.43;;;19.23;93.48
55755;BME280;41674;52.290;-1.474;2023-06-24T07:07:22;101722.67;;;20.08;89.16
55755;BME280;41674;52.290;-1.474;2023-06-24T07:09:51;101716.22;;;20.82;86.13
55755;BME280;41674;52.290;-1.474;2023-06-24T07:12:21;101723.57;;;20.44;86.29
55755;BME280;41674;52.290;-1.474;2023-06-24T07:14:51;101727.79;;;21.33;83.23
55755;BME280;41674;52.290;-1.474;2023-06-24T07:17:20;101729.92;;;21.38;81.83
55755;BME280;41674;52.290;-1.474;2023-06-24T07:19:49;101738.20;;;20.85;83.10
55755;BME280;41674;52.290;-1.474;2023-06-24T07:22:19;101743.38;;;20.81;83.51
55755;BME280;41674;52.290;-1.474;2023-06-24T07:24:49;101746.11;;;21.01;81.30
55755;BME280;41674;52.290;-1.474;2023-06-24T07:27:19;101739.09;;;21.96;78.72
55755;BME280;41674;52.290;-1.474;2023-06-24T07:29:48;101742.45;;;21.82;78.60
55755;BME280;41674;52.290;-1.474;2023-06-24T07:32:17;101747.51;;;21.32;81.14
55755;BME280;41674;52.290;-1.474;2023-06-24T07:34:47;101748.95;;;20.94;82.44
55755;BME280;41674;52.290;-1.474;2023-06-24T07:37:16;101750.92;;;20.72;82.70
55755;BME280;41674;52.290;-1.474;2023-06-24T07:39:46;101751.26;;;20.83;83.87
55755;BME280;41674;52.290;-1.474;2023-06-24T07:42:15;101754.32;;;20.74;85.02
55755;BME280;41674;52.290;-1.474;2023-06-24T07:44:44;101754.46;;;21.33;83.36
55755;BME280;41674;52.290;-1.474;2023-06-24T07:47:15;101750.13;;;20.83;85.19
55755;BME280;41674;52.290;-1.474;2023-06-24T07:49:44;101750.57;;;20.87;84.53
55755;BME280;41674;52.290;-1.474;2023-06-24T07:52:13;101754.04;;;19.75;88.51
55755;BME280;41674;52.290;-1.474;2023-06-24T07:54:43;101748.67;;;20.48;86.80
55755;BME280;41674;52.290;-1.474;2023-06-24T07:57:12;101754.05;;;20.32;87.63
55755;BME280;41674;52.290;-1.474;2023-06-24T07:59:42;101750.39;;;20.93;84.69
55755;BME280;41674;52.290;-1.474;2023-06-24T08:02:12;101752.25;;;21.03;85.51
55755;BME280;41674;52.290;-1.474;2023-06-24T08:04:41;101753.33;;;20.41;87.15
55755;BME280;41674;52.290;-1.474;2023-06-24T08:07:10;101755.73;;;21.20;85.61
55755;BME280;41674;52.290;-1.474;2023-06-24T08:09:39;101759.95;;;20.67;86.11
55755;BME280;41674;52.290;-1.474;2023-06-24T08:12:09;101759.23;;;21.40;85.19
55755;BME280;41674;52.290;-1.474;2023-06-24T08:14:38;101751.05;;;20.17;88.06
55755;BME280;41674;52.290;-1.474;2023-06-24T08:17:08;101753.33;;;20.21;89.86
55755;BME280;41674;52.290;-1.474;2023-06-24T08:19:37;101750.71;;;19.88;89.82
55755;BME280;41674;52.290;-1.474;2023-06-24T08:22:07;101751.37;;;20.79;89.23
55755;BME280;41674;52.290;-1.474;2023-06-24T08:24:36;101752.30;;;19.82;90.60
55755;BME280;41674;52.290;-1.474;2023-06-24T08:27:06;101746.61;;;20.26;91.31
55755;BME280;41674;52.290;-1.474;2023-06-24T08:29:35;101747.88;;;21.43;88.11
55755;BME280;41674;52.290;-1.474;2023-06-24T08:32:05;101748.56;;;20.56;88.30
55755;BME280;41674;52.290;-1.474;2023-06-24T08:34:34;101744.08;;;20.60;88.56
55755;BME280;41674;52.290;-1.474;2023-06-24T08:37:04;101738.27;;;20.80;88.21
55755;BME280;41674;52.290;-1.474;2023-06-24T08:39:33;101738.50;;;20.39;89.66
55755;BME280;41674;52.290;-1.474;2023-06-24T08:42:03;101727.67;;;20.78;88.87
55755;BME280;41674;52.290;-1.474;2023-06-24T08:44:32;101730.42;;;20.66;87.84
55755;BME280;41674;52.290;-1.474;2023-06-24T08:47:02;101733.48;;;21.44;87.34
55755;BME280;41674;52.290;-1.474;2023-06-24T08:49:33;101729.81;;;20.69;88.61
55755;BME280;41674;52.290;-1.474;2023-06-24T08:52:03;101731.88;;;21.21;87.16
55755;BME280;41674;52.290;-1.474;2023-06-24T08:54:33;101734.49;;;20.94;86.56
55755;BME280;41674;52.290;-1.474;2023-06-24T08:57:00;101730.97;;;20.20;90.32
55755;BME280;41674;52.290;-1.474;2023-06-24T08:59:30;101732.46;;;21.28;87.66
55755;BME280;41674;52.290;-1.474;2023-06-24T09:01:59;101730.84;;;21.74;87.02
55755;BME280;41674;52.290;-1.474;2023-06-24T09:04:28;101724.87;;;21.65;84.81
55755;BME280;41674;52.290;-1.474;2023-06-24T09:06:58;101732.37;;;20.45;89.35
55755;BME280;41674;52.290;-1.474;2023-06-24T09:09:27;101730.57;;;20.45;88.95
55755;BME280;41674;52.290;-1.474;2023-06-24T09:11:59;101734.77;;;21.12;86.50
55755;BME280;41674;52.290;-1.474;2023-06-24T09:14:27;101731.73;;;21.26;86.78
55755;BME280;41674;52.290;-1.474;2023-06-24T09:16:57;101727.38;;;21.48;87.65
55755;BME280;41674;52.290;-1.474;2023-06-24T09:19:26;101729.31;;;21.45;87.96
55755;BME280;41674;52.290;-1.474;2023-06-24T09:21:55;101726.84;;;23.06;81.31
55755;BME280;41674;52.290;-1.474;2023-06-24T09:24:27;101719.54;;;22.68;79.24
55755;BME280;41674;52.290;-1.474;2023-06-24T09:26:56;101715.32;;;22.99;79.56
55755;BME280;41674;52.290;-1.474;2023-06-24T09:29:25;101716.45;;;22.49;81.55
55755;BME280;41674;52.290;-1.474;2023-06-24T09:31:53;101717.41;;;22.78;81.41
55755;BME280;41674;52.290;-1.474;2023-06-24T09:34:22;101721.02;;;21.87;81.43
55755;BME280;41674;52.290;-1.474;2023-06-24T09:36:53;101717.95;;;22.95;78.70
55755;BME280;41674;52.290;-1.474;2023-06-24T09:39:22;101727.36;;;21.69;81.39
55755;BME280;41674;52.290;-1.474;2023-06-24T09:41:51;101729.93;;;21.19;84.97
55755;BME280;41674;52.290;-1.474;2023-06-24T09:44:21;101731.30;;;21.89;82.99
55755;BME280;41674;52.290;-1.474;2023-06-24T09:46:50;101728.19;;;22.19;81.23
55755;BME280;41674;52.290;-1.474;2023-06-24T09:49:19;101726.26;;;23.02;79.51
55755;BME280;41674;52.290;-1.474;2023-06-24T09:51:55;101722.45;;;22.80;78.15
55755;BME280;41674;52.290;-1.474;2023-06-24T09:54:18;101729.35;;;22.94;77.49
55755;BME280;41674;52.290;-1.474;2023-06-24T09:56:49;101733.36;;;22.05;80.22
55755;BME280;41674;52.290;-1.474;2023-06-24T09:59:19;101731.93;;;22.18;80.50
55755;BME280;41674;52.290;-1.474;2023-06-24T10:01:47;101725.70;;;22.54;78.23
55755;BME280;41674;52.290;-1.474;2023-06-24T10:04:18;101723.88;;;22.94;77.33
55755;BME280;41674;52.290;-1.474;2023-06-24T10:06:46;101725.66;;;22.42;77.92
55755;BME280;41674;52.290;-1.474;2023-06-24T10:09:16;101720.45;;;22.75;79.00
55755;BME280;41674;52.290;-1.474;2023-06-24T10:11:45;101721.58;;;21.84;81.19
55755;BME280;41674;52.290;-1.474;2023-06-24T10:14:15;101711.99;;;22.48;79.73
55755;BME280;41674;52.290;-1.474;2023-06-24T10:16:44;101709.01;;;22.51;80.89
55755;BME280;41674;52.290;-1.474;2023-06-24T10:19:20;101709.71;;;22.75;80.32
55755;BME280;41674;52.290;-1.474;2023-06-24T10:21:47;101709.05;;;22.65;79.99
55755;BME280;41674;52.290;-1.474;2023-06-24T10:24:12;101711.38;;;23.23;75.70
55755;BME280;41674;52.290;-1.474;2023-06-24T10:26:41;101711.34;;;23.52;76.47
55755;BME280;41674;52.290;-1.474;2023-06-24T10:29:11;101707.47;;;23.63;75.53
55755;BME280;41674;52.290;-1.474;2023-06-24T10:31:50;101704.15;;;23.81;74.18
55755;BME280;41674;52.290;-1.474;2023-06-24T10:34:20;101698.99;;;24.45;73.18
55755;BME280;41674;52.290;-1.474;2023-06-24T10:36:39;101699.60;;;24.22;72.92
55755;BME280;41674;52.290;-1.474;2023-06-24T10:41:38;101690.79;;;24.13;73.25
55755;BME280;41674;52.290;-1.474;2023-06-24T10:44:14;101685.64;;;24.04;73.00
55755;BME280;41674;52.290;-1.474;2023-06-24T10:46:37;101684.71;;;24.33;73.03
55755;BME280;41674;52.290;-1.474;2023-06-24T10:49:07;101678.81;;;24.24;72.35
55755;BME280;41674;52.290;-1.474;2023-06-24T10:51:36;101676.45;;;24.45;71.41
55755;BME280;41674;52.290;-1.474;2023-06-24T10:54:06;101676.64;;;24.35;70.93
55755;BME280;41674;52.290;-1.474;2023-06-24T10:56:36;101685.08;;;24.52;72.21
55755;BME280;41674;52.290;-1.474;2023-06-24T10:59:05;101684.16;;;23.15;74.70
55755;BME280;41674;52.290;-1.474;2023-06-24T11:01:34;101680.58;;;22.91;75.26
55755;BME280;41674;52.290;-1.474;2023-06-24T11:04:06;101677.59;;;23.80;74.15
55755;BME280;41674;52.290;-1.474;2023-06-24T11:06:33;101678.38;;;24.35;75.10
55755;BME280;41674;52.290;-1.474;2023-06-24T11:09:02;101674.92;;;24.82;71.72
55755;BME280;41674;52.290;-1.474;2023-06-24T11:11:32;101672.50;;;25.58;68.31
55755;BME280;41674;52.290;-1.474;2023-06-24T11:14:03;101668.44;;;24.64;69.52
55755;BME280;41674;52.290;-1.474;2023-06-24T11:16:31;101669.20;;;24.22;72.17
55755;BME280;41674;52.290;-1.474;2023-06-24T11:19:01;101667.62;;;24.85;67.34
55755;BME280;41674;52.290;-1.474;2023-06-24T11:21:30;101665.16;;;23.97;69.53
55755;BME280;41674;52.290;-1.474;2023-06-24T11:24:01;101667.54;;;24.29;71.70
55755;BME280;41674;52.290;-1.474;2023-06-24T11:26:29;101665.31;;;24.23;73.74
55755;BME280;41674;52.290;-1.474;2023-06-24T11:28:58;101664.40;;;25.25;67.75
55755;BME280;41674;52.290;-1.474;2023-06-24T11:31:27;101664.90;;;25.40;64.91
55755;BME280;41674;52.290;-1.474;2023-06-24T11:33:57;101665.86;;;25.29;63.71
55755;BME280;41674;52.290;-1.474;2023-06-24T11:36:26;101664.72;;;25.05;67.11
55755;BME280;41674;52.290;-1.474;2023-06-24T11:38:56;101662.58;;;24.88;69.46
55755;BME280;41674;52.290;-1.474;2023-06-24T11:41:25;101659.99;;;25.21;66.94
55755;BME280;41674;52.290;-1.474;2023-06-24T11:43:58;101656.66;;;25.01;69.97
55755;BME280;41674;52.290;-1.474;2023-06-24T11:46:24;101658.11;;;24.96;70.83
55755;BME280;41674;52.290;-1.474;2023-06-24T11:49:03;101652.46;;;26.33;66.66
55755;BME280;41674;52.290;-1.474;2023-06-24T11:51:24;101648.05;;;26.81;65.06
55755;BME280;41674;52.290;-1.474;2023-06-24T11:53:53;101647.27;;;26.68;62.12
55755;BME280;41674;52.290;-1.474;2023-06-24T11:56:34;101643.22;;;26.73;59.13
55755;BME280;41674;52.290;-1.474;2023-06-24T11:58:52;101641.00;;;26.48;61.71
55755;BME280;41674;52.290;-1.474;2023-06-24T12:01:22;101637.25;;;26.43;61.35
55755;BME280;41674;52.290;-1.474;2023-06-24T12:03:51;101637.80;;;26.75;61.23
55755;BME280;41674;52.290;-1.474;2023-06-24T12:06:20;101637.12;;;26.81;61.32
55755;BME280;41674;52.290;-1.474;2023-06-24T12:08:50;101635.21;;;26.52;58.74
55755;BME280;41674;52.290;-1.474;2023-06-24T12:11:19;101633.50;;;27.45;56.67
55755;BME280;41674;52.290;-1.474;2023-06-24T12:13:49;101633.27;;;26.65;57.15
55755;BME280;41674;52.290;-1.474;2023-06-24T12:16:18;101633.70;;;25.98;59.38
55755;BME280;41674;52.290;-1.474;2023-06-24T12:18:48;101631.44;;;27.18;57.61
55755;BME280;41674;52.290;-1.474;2023-06-24T12:21:17;101627.35;;;27.37;56.08
55755;BME280;41674;52.290;-1.474;2023-06-24T12:23:47;101627.40;;;27.96;53.73
55755;BME280;41674;52.290;-1.474;2023-06-24T12:26:16;101623.06;;;27.06;53.76
55755;BME280;41674;52.290;-1.474;2023-06-24T12:28:46;101627.93;;;26.26;57.82
55755;BME280;41674;52.290;-1.474;2023-06-24T12:31:15;101627.85;;;26.81;58.78
55755;BME280;41674;52.290;-1.474;2023-06-24T12:33:45;101624.50;;;27.05;57.08
55755;BME280;41674;52.290;-1.474;2023-06-24T12:36:14;101621.18;;;26.34;59.66
55755;BME280;41674;52.290;-1.474;2023-06-24T12:38:43;101623.17;;;26.97;58.22
55755;BME280;41674;52.290;-1.474;2023-06-24T12:41:13;101622.95;;;26.70;60.89
55755;BME280;41674;52.290;-1.474;2023-06-24T12:43:43;101622.07;;;26.75;61.01
55755;BME280;41674;52.290;-1.474;2023-06-24T12:46:12;101624.00;;;26.93;57.91
55755;BME280;41674;52.290;-1.474;2023-06-24T12:48:42;101618.34;;;28.10;53.33
55755;BME280;41674;52.290;-1.474;2023-06-24T12:51:11;101613.38;;;27.67;53.56
55755;BME280;41674;52.290;-1.474;2023-06-24T12:53:41;101611.43;;;27.16;55.91
55755;BME280;41674;52.290;-1.474;2023-06-24T12:56:10;101602.70;;;28.21;52.70
55755;BME280;41674;52.290;-1.474;2023-06-24T12:58:39;101602.90;;;28.56;52.41